sensor_id;sensor_type;location;lat;lon;timestamp;P1;durP1;ratioP1;P2;durP2;ratioP2
65230;SDS011;51813;40.666;16.602;2023-01-26T00:01:08;3.28;;;2.10;;
65230;SDS011;51813;40.666;16.602;2023-01-26T00:03:38;3.78;;;2.28;;
65230;SDS011;51813;40.666;16.602;2023-01-26T00:06:04;3.20;;;2.00;;
65230;SDS011;51813;40.666;16.602;2023-01-26T00:08:37;3.80;;;2.50;;
65230;SDS011;51813;40.666;16.602;2023-01-26T00:11:04;3.70;;;2.20;;
65230;SDS011;51813;40.666;16.602;2023-01-26T00:13:31;3.00;;;1.90;;
65230;SDS011;51813;40.666;16.602;2023-01-26T00:15:57;2.85;;;1.83;;
65230;SDS011;51813;40.666;16.602;2023-01-26T00:18:23;2.97;;;1.88;;
65230;SDS011;51813;40.666;16.602;2023-01-26T00:20:55;3.38;;;2.00;;
65230;SDS011;51813;40.666;16.602;2023-01-26T00:23:22;2.95;;;1.73;;
65230;SDS011;51813;40.666;16.602;2023-01-26T00:25:48;2.70;;;1.90;;
65230;SDS011;51813;40.666;16.602;2023-01-26T00:28:13;3.42;;;1.85;;
65230;SDS011;51813;40.666;16.602;2023-01-26T00:30:39;3.50;;;2.25;;
65230;SDS011;51813;40.666;16.602;2023-01-26T00:33:05;2.65;;;1.63;;
65230;SDS011;51813;40.666;16.602;2023-01-26T00:35:31;3.80;;;2.40;;
65230;SDS011;51813;40.666;16.602;2023-01-26T00:37:56;2.58;;;1.65;;
65230;SDS011;51813;40.666;16.602;2023-01-26T00:40:22;2.47;;;1.73;;
65230;SDS011;51813;40.666;16.602;2023-01-26T00:42:48;2.78;;;1.92;;
65230;SDS011;51813;40.666;16.602;2023-01-26T00:45:13;2.88;;;1.90;;
65230;SDS011;51813;40.666;16.602;2023-01-26T00:47:39;3.13;;;2.17;;
65230;SDS011;51813;40.666;16.602;2023-01-26T00:50:05;3.00;;;1.90;;
65230;SDS011;51813;40.666;16.602;2023-01-26T00:52:31;2.58;;;1.73;;
65230;SDS011;51813;40.666;16.602;2023-01-26T00:54:57;3.00;;;1.80;;
65230;SDS011;51813;40.666;16.602;2023-01-26T00:57:23;2.45;;;1.70;;
65230;SDS011;51813;40.666;16.602;2023-01-26T00:59:48;2.70;;;1.75;;
65230;SDS011;51813;40.666;16.602;2023-01-26T01:02:14;2.42;;;1.70;;
65230;SDS011;51813;40.666;16.602;2023-01-26T01:04:40;2.88;;;1.80;;
65230;SDS011;51813;40.666;16.602;2023-01-26T01:07:05;2.88;;;1.92;;
65230;SDS011;51813;40.666;16.602;2023-01-26T01:09:31;2.55;;;1.70;;
65230;SDS011;51813;40.666;16.602;2023-01-26T01:11:57;2.95;;;1.80;;
65230;SDS011;51813;40.666;16.602;2023-01-26T01:14:23;2.95;;;1.85;;
65230;SDS011;51813;40.666;16.602;2023-01-26T01:16:49;3.00;;;1.98;;
65230;SDS011;51813;40.666;16.602;2023-01-26T01:19:15;2.63;;;1.65;;
65230;SDS011;51813;40.666;16.602;2023-01-26T01:21:42;2.50;;;1.75;;
65230;SDS011;51813;40.666;16.602;2023-01-26T01:24:08;2.50;;;1.67;;
65230;SDS011;51813;40.666;16.602;2023-01-26T01:26:35;2.78;;;1.83;;
65230;SDS011;51813;40.666;16.602;2023-01-26T01:29:01;2.28;;;1.50;;
65230;SDS011;51813;40.666;16.602;2023-01-26T01:31:27;2.55;;;1.50;;
65230;SDS011;51813;40.666;16.602;2023-01-26T01:33:54;2.97;;;1.50;;
65230;SDS011;51813;40.666;16.602;2023-01-26T01:36:20;2.67;;;1.65;;
65230;SDS011;51813;40.666;16.602;2023-01-26T01:38:46;2.53;;;1.80;;
65230;SDS011;51813;40.666;16.602;2023-01-26T01:41:13;2.53;;;1.48;;
65230;SDS011;51813;40.666;16.602;2023-01-26T01:43:44;2.47;;;1.60;;
65230;SDS011;51813;40.666;16.602;2023-01-26T01:51:50;2.70;;;1.70;;
65230;SDS011;51813;40.666;16.602;2023-01-26T01:54:27;2.40;;;1.40;;
65230;SDS011;51813;40.666;16.602;2023-01-26T01:56:57;2.30;;;1.40;;
65230;SDS011;51813;40.666;16.602;2023-01-26T01:59:28;2.58;;;1.48;;
65230;SDS011;51813;40.666;16.602;2023-01-26T02:01:55;2.63;;;1.50;;
65230;SDS011;51813;40.666;16.602;2023-01-26T02:04:21;2.55;;;1.50;;
65230;SDS011;51813;40.666;16.602;2023-01-26T02:06:49;2.30;;;1.40;;
65230;SDS011;51813;40.666;16.602;2023-01-26T02:09:17;2.47;;;1.50;;
65230;SDS011;51813;40.666;16.602;2023-01-26T02:12:05;2.30;;;1.30;;
65230;SDS011;51813;40.666;16.602;2023-01-26T02:14:32;2.45;;;1.55;;
65230;SDS011;51813;40.666;16.602;2023-01-26T02:16:58;2.10;;;1.30;;
65230;SDS011;51813;40.666;16.602;2023-01-26T02:24:58;2.03;;;1.27;;
65230;SDS011;51813;40.666;16.602;2023-01-26T02:27:31;2.40;;;1.50;;
65230;SDS011;51813;40.666;16.602;2023-01-26T02:29:56;2.45;;;1.52;;
65230;SDS011;51813;40.666;16.602;2023-01-26T02:32:24;2.65;;;1.50;;
65230;SDS011;51813;40.666;16.602;2023-01-26T02:34:55;2.92;;;1.50;;
65230;SDS011;51813;40.666;16.602;2023-01-26T02:37:22;2.83;;;1.52;;
65230;SDS011;51813;40.666;16.602;2023-01-26T02:42:17;3.67;;;2.17;;
65230;SDS011;51813;40.666;16.602;2023-01-26T02:45:01;3.53;;;2.38;;
65230;SDS011;51813;40.666;16.602;2023-01-26T02:47:26;3.50;;;2.00;;
65230;SDS011;51813;40.666;16.602;2023-01-26T02:49:52;3.53;;;2.03;;
65230;SDS011;51813;40.666;16.602;2023-01-26T02:52:22;3.17;;;1.80;;
65230;SDS011;51813;40.666;16.602;2023-01-26T02:54:50;3.20;;;2.00;;
65230;SDS011;51813;40.666;16.602;2023-01-26T02:57:36;3.40;;;2.05;;
65230;SDS011;51813;40.666;16.602;2023-01-26T03:00:02;2.88;;;2.10;;
65230;SDS011;51813;40.666;16.602;2023-01-26T03:02:30;3.17;;;2.10;;
65230;SDS011;51813;40.666;16.602;2023-01-26T03:04:55;2.75;;;1.73;;
65230;SDS011;51813;40.666;16.602;2023-01-26T03:07:21;2.85;;;1.88;;
65230;SDS011;51813;40.666;16.602;2023-01-26T03:09:47;3.67;;;2.10;;
65230;SDS011;51813;40.666;16.602;2023-01-26T03:12:12;3.05;;;1.80;;
65230;SDS011;51813;40.666;16.602;2023-01-26T03:14:38;3.22;;;1.95;;
65230;SDS011;51813;40.666;16.602;2023-01-26T03:17:04;3.13;;;1.90;;
65230;SDS011;51813;40.666;16.602;2023-01-26T03:19:29;3.45;;;2.10;;
65230;SDS011;51813;40.666;16.602;2023-01-26T03:22:14;2.80;;;1.80;;
65230;SDS011;51813;40.666;16.602;2023-01-26T03:24:58;2.30;;;1.55;;
65230;SDS011;51813;40.666;16.602;2023-01-26T03:27:43;3.20;;;1.60;;
65230;SDS011;51813;40.666;16.602;2023-01-26T03:30:14;2.42;;;1.55;;
65230;SDS011;51813;40.666;16.602;2023-01-26T03:32:42;2.65;;;1.70;;
65230;SDS011;51813;40.666;16.602;2023-01-26T03:35:08;2.92;;;1.73;;
65230;SDS011;51813;40.666;16.602;2023-01-26T03:37:39;2.42;;;1.60;;
65230;SDS011;51813;40.666;16.602;2023-01-26T03:40:07;2.67;;;1.60;;
65230;SDS011;51813;40.666;16.602;2023-01-26T03:42:53;2.92;;;1.73;;
65230;SDS011;51813;40.666;16.602;2023-01-26T03:45:37;2.60;;;1.52;;
65230;SDS011;51813;40.666;16.602;2023-01-26T03:48:21;3.08;;;2.10;;
65230;SDS011;51813;40.666;16.602;2023-01-26T03:51:05;2.97;;;2.03;;
65230;SDS011;51813;40.666;16.602;2023-01-26T03:53:49;2.80;;;1.80;;
65230;SDS011;51813;40.666;16.602;2023-01-26T03:56:33;2.85;;;2.03;;
65230;SDS011;51813;40.666;16.602;2023-01-26T03:59:03;2.88;;;1.80;;
65230;SDS011;51813;40.666;16.602;2023-01-26T04:01:33;2.80;;;1.90;;
65230;SDS011;51813;40.666;16.602;2023-01-26T04:04:00;2.75;;;1.90;;
65230;SDS011;51813;40.666;16.602;2023-01-26T04:06:45;2.60;;;1.70;;
65230;SDS011;51813;40.666;16.602;2023-01-26T04:09:30;2.58;;;1.70;;
65230;SDS011;51813;40.666;16.602;2023-01-26T04:11:57;2.70;;;1.80;;
65230;SDS011;51813;40.666;16.602;2023-01-26T04:14:23;2.42;;;1.50;;
65230;SDS011;51813;40.666;16.602;2023-01-26T04:17:07;2.72;;;1.70;;
65230;SDS011;51813;40.666;16.602;2023-01-26T04:19:51;2.90;;;1.80;;
65230;SDS011;51813;40.666;16.602;2023-01-26T04:22:36;2.60;;;1.55;;
65230;SDS011;51813;40.666;16.602;2023-01-26T04:25:10;2.30;;;1.40;;
65230;SDS011;51813;40.666;16.602;2023-01-26T04:27:39;2.50;;;1.40;;
65230;SDS011;51813;40.666;16.602;2023-01-26T04:30:05;2.20;;;1.42;;
65230;SDS011;51813;40.666;16.602;2023-01-26T04:32:32;2.70;;;1.70;;
65230;SDS011;51813;40.666;16.602;2023-01-26T04:34:57;2.75;;;1.55;;
65230;SDS011;51813;40.666;16.602;2023-01-26T04:37:23;2.55;;;1.58;;
65230;SDS011;51813;40.666;16.602;2023-01-26T04:39:49;2.17;;;1.38;;
65230;SDS011;51813;40.666;16.602;2023-01-26T04:42:14;2.42;;;1.52;;
65230;SDS011;51813;40.666;16.602;2023-01-26T04:44:40;2.42;;;1.50;;
65230;SDS011;51813;40.666;16.602;2023-01-26T04:47:06;2.78;;;1.70;;
65230;SDS011;51813;40.666;16.602;2023-01-26T04:49:31;3.28;;;1.98;;
65230;SDS011;51813;40.666;16.602;2023-01-26T04:51:57;2.40;;;1.63;;
65230;SDS011;51813;40.666;16.602;2023-01-26T04:54:23;3.13;;;1.80;;
65230;SDS011;51813;40.666;16.602;2023-01-26T04:56:48;2.85;;;2.00;;
65230;SDS011;51813;40.666;16.602;2023-01-26T04:59:15;2.97;;;1.90;;
65230;SDS011;51813;40.666;16.602;2023-01-26T05:01:41;2.85;;;1.90;;
65230;SDS011;51813;40.666;16.602;2023-01-26T05:04:09;3.60;;;1.80;;
65230;SDS011;51813;40.666;16.602;2023-01-26T05:06:36;3.03;;;1.88;;
65230;SDS011;51813;40.666;16.602;2023-01-26T05:09:02;2.95;;;1.80;;
65230;SDS011;51813;40.666;16.602;2023-01-26T05:11:29;3.08;;;2.00;;
65230;SDS011;51813;40.666;16.602;2023-01-26T05:13:55;2.60;;;1.80;;
65230;SDS011;51813;40.666;16.602;2023-01-26T05:16:20;3.55;;;2.00;;
65230;SDS011;51813;40.666;16.602;2023-01-26T05:18:46;3.20;;;2.10;;
65230;SDS011;51813;40.666;16.602;2023-01-26T05:21:12;3.28;;;2.08;;
65230;SDS011;51813;40.666;16.602;2023-01-26T05:23:38;3.50;;;2.17;;
65230;SDS011;51813;40.666;16.602;2023-01-26T05:26:04;3.65;;;2.00;;
65230;SDS011;51813;40.666;16.602;2023-01-26T05:28:30;2.97;;;1.90;;
65230;SDS011;51813;40.666;16.602;2023-01-26T05:30:56;3.00;;;1.83;;
65230;SDS011;51813;40.666;16.602;2023-01-26T05:33:21;2.83;;;1.85;;
65230;SDS011;51813;40.666;16.602;2023-01-26T05:35:47;2.90;;;2.00;;
65230;SDS011;51813;40.666;16.602;2023-01-26T05:38:14;2.80;;;1.90;;
65230;SDS011;51813;40.666;16.602;2023-01-26T05:40:39;2.80;;;1.73;;
65230;SDS011;51813;40.666;16.602;2023-01-26T05:43:05;2.47;;;1.63;;
65230;SDS011;51813;40.666;16.602;2023-01-26T05:45:32;2.35;;;1.55;;
65230;SDS011;51813;40.666;16.602;2023-01-26T05:47:58;3.30;;;1.85;;
65230;SDS011;51813;40.666;16.602;2023-01-26T05:50:24;2.50;;;1.45;;
65230;SDS011;51813;40.666;16.602;2023-01-26T05:52:50;3.88;;;1.80;;
65230;SDS011;51813;40.666;16.602;2023-01-26T05:55:16;2.85;;;1.55;;
65230;SDS011;51813;40.666;16.602;2023-01-26T05:57:42;2.58;;;1.70;;
65230;SDS011;51813;40.666;16.602;2023-01-26T06:00:08;3.05;;;1.70;;
65230;SDS011;51813;40.666;16.602;2023-01-26T06:02:35;2.30;;;1.40;;
65230;SDS011;51813;40.666;16.602;2023-01-26T06:05:00;2.38;;;1.48;;
65230;SDS011;51813;40.666;16.602;2023-01-26T06:07:26;2.90;;;1.80;;
65230;SDS011;51813;40.666;16.602;2023-01-26T06:09:52;2.33;;;1.48;;
65230;SDS011;51813;40.666;16.602;2023-01-26T06:12:18;2.83;;;1.73;;
65230;SDS011;51813;40.666;16.602;2023-01-26T06:14:45;2.70;;;1.40;;
65230;SDS011;51813;40.666;16.602;2023-01-26T06:17:11;2.97;;;1.80;;
65230;SDS011;51813;40.666;16.602;2023-01-26T06:19:38;2.90;;;1.85;;
65230;SDS011;51813;40.666;16.602;2023-01-26T06:22:07;2.95;;;1.88;;
65230;SDS011;51813;40.666;16.602;2023-01-26T06:24:36;2.38;;;1.45;;
65230;SDS011;51813;40.666;16.602;2023-01-26T06:27:02;2.60;;;1.40;;
65230;SDS011;51813;40.666;16.602;2023-01-26T06:29:30;2.75;;;1.58;;
65230;SDS011;51813;40.666;16.602;2023-01-26T06:31:57;2.97;;;1.75;;
65230;SDS011;51813;40.666;16.602;2023-01-26T06:34:23;2.53;;;1.58;;
65230;SDS011;51813;40.666;16.602;2023-01-26T06:36:49;2.40;;;1.60;;
65230;SDS011;51813;40.666;16.602;2023-01-26T06:39:15;2.40;;;1.55;;
65230;SDS011;51813;40.666;16.602;2023-01-26T06:41:41;2.85;;;1.90;;
65230;SDS011;51813;40.666;16.602;2023-01-26T06:44:10;3.05;;;1.75;;
65230;SDS011;51813;40.666;16.602;2023-01-26T06:46:36;2.80;;;1.50;;
65230;SDS011;51813;40.666;16.602;2023-01-26T06:49:02;2.70;;;1.70;;
65230;SDS011;51813;40.666;16.602;2023-01-26T06:54:10;2.80;;;1.60;;
65230;SDS011;51813;40.666;16.602;2023-01-26T06:56:36;3.17;;;1.70;;
65230;SDS011;51813;40.666;16.602;2023-01-26T06:59:02;2.50;;;1.40;;
65230;SDS011;51813;40.666;16.602;2023-01-26T07:01:28;2.97;;;1.60;;
65230;SDS011;51813;40.666;16.602;2023-01-26T07:04:01;2.67;;;1.55;;
65230;SDS011;51813;40.666;16.602;2023-01-26T07:06:26;3.03;;;2.00;;
65230;SDS011;51813;40.666;16.602;2023-01-26T07:08:52;3.80;;;1.95;;
65230;SDS011;51813;40.666;16.602;2023-01-26T07:11:18;3.45;;;1.90;;
65230;SDS011;51813;40.666;16.602;2023-01-26T07:13:44;2.67;;;1.70;;
65230;SDS011;51813;40.666;16.602;2023-01-26T07:16:12;3.13;;;1.83;;
65230;SDS011;51813;40.666;16.602;2023-01-26T07:18:39;3.35;;;1.90;;
65230;SDS011;51813;40.666;16.602;2023-01-26T07:21:06;2.78;;;1.70;;
65230;SDS011;51813;40.666;16.602;2023-01-26T07:23:34;3.05;;;1.88;;
65230;SDS011;51813;40.666;16.602;2023-01-26T07:26:00;3.10;;;1.80;;
65230;SDS011;51813;40.666;16.602;2023-01-26T07:28:26;2.35;;;1.70;;
65230;SDS011;51813;40.666;16.602;2023-01-26T07:30:57;2.72;;;1.50;;
65230;SDS011;51813;40.666;16.602;2023-01-26T07:33:23;2.45;;;1.40;;
65230;SDS011;51813;40.666;16.602;2023-01-26T07:35:52;2.67;;;1.70;;
65230;SDS011;51813;40.666;16.602;2023-01-26T07:38:18;2.92;;;1.60;;
65230;SDS011;51813;40.666;16.602;2023-01-26T07:40:44;2.67;;;1.70;;
65230;SDS011;51813;40.666;16.602;2023-01-26T07:43:10;2.35;;;1.58;;
65230;SDS011;51813;40.666;16.602;2023-01-26T07:45:35;2.67;;;1.40;;
65230;SDS011;51813;40.666;16.602;2023-01-26T07:48:01;2.10;;;1.17;;
65230;SDS011;51813;40.666;16.602;2023-01-26T07:50:27;2.65;;;1.45;;
65230;SDS011;51813;40.666;16.602;2023-01-26T07:52:53;2.08;;;1.20;;
65230;SDS011;51813;40.666;16.602;2023-01-26T07:55:19;2.17;;;1.35;;
65230;SDS011;51813;40.666;16.602;2023-01-26T07:57:48;2.90;;;1.60;;
65230;SDS011;51813;40.666;16.602;2023-01-26T08:00:14;2.70;;;1.38;;
65230;SDS011;51813;40.666;16.602;2023-01-26T08:02:41;2.33;;;1.40;;
65230;SDS011;51813;40.666;16.602;2023-01-26T08:05:07;2.70;;;1.55;;
65230;SDS011;51813;40.666;16.602;2023-01-26T08:07:33;2.30;;;1.33;;
65230;SDS011;51813;40.666;16.602;2023-01-26T08:09:59;2.60;;;1.60;;
65230;SDS011;51813;40.666;16.602;2023-01-26T08:12:24;2.03;;;1.40;;
65230;SDS011;51813;40.666;16.602;2023-01-26T08:14:51;2.58;;;1.38;;
65230;SDS011;51813;40.666;16.602;2023-01-26T08:17:16;2.55;;;1.60;;
65230;SDS011;51813;40.666;16.602;2023-01-26T08:19:43;2.25;;;1.48;;
65230;SDS011;51813;40.666;16.602;2023-01-26T08:22:10;2.28;;;1.35;;
65230;SDS011;51813;40.666;16.602;2023-01-26T08:24:35;3.13;;;1.33;;
65230;SDS011;51813;40.666;16.602;2023-01-26T08:27:01;3.70;;;1.40;;
65230;SDS011;51813;40.666;16.602;2023-01-26T08:29:27;2.13;;;1.20;;
65230;SDS011;51813;40.666;16.602;2023-01-26T08:31:53;2.78;;;1.30;;
65230;SDS011;51813;40.666;16.602;2023-01-26T08:34:19;2.53;;;1.40;;
65230;SDS011;51813;40.666;16.602;2023-01-26T08:36:46;2.58;;;1.40;;
65230;SDS011;51813;40.666;16.602;2023-01-26T08:39:12;2.58;;;1.40;;
65230;SDS011;51813;40.666;16.602;2023-01-26T08:41:38;3.42;;;1.40;;
65230;SDS011;51813;40.666;16.602;2023-01-26T08:44:04;2.70;;;1.50;;
65230;SDS011;51813;40.666;16.602;2023-01-26T08:46:31;2.92;;;1.45;;
65230;SDS011;51813;40.666;16.602;2023-01-26T08:48:57;2.13;;;1.17;;
65230;SDS011;51813;40.666;16.602;2023-01-26T08:51:22;3.40;;;1.35;;
65230;SDS011;51813;40.666;16.602;2023-01-26T08:53:48;2.60;;;1.20;;
65230;SDS011;51813;40.666;16.602;2023-01-26T08:56:14;2.65;;;1.20;;
65230;SDS011;51813;40.666;16.602;2023-01-26T08:58:40;3.45;;;1.20;;
65230;SDS011;51813;40.666;16.602;2023-01-26T09:01:10;3.10;;;1.08;;
65230;SDS011;51813;40.666;16.602;2023-01-26T09:03:37;2.40;;;1.30;;
65230;SDS011;51813;40.666;16.602;2023-01-26T09:06:04;1.80;;;1.02;;
65230;SDS011;51813;40.666;16.602;2023-01-26T09:08:31;2.63;;;1.10;;
65230;SDS011;51813;40.666;16.602;2023-01-26T09:10:57;1.80;;;1.10;;
65230;SDS011;51813;40.666;16.602;2023-01-26T09:13:23;2.35;;;1.23;;
65230;SDS011;51813;40.666;16.602;2023-01-26T09:15:49;2.20;;;1.13;;
65230;SDS011;51813;40.666;16.602;2023-01-26T09:18:14;2.40;;;1.20;;
65230;SDS011;51813;40.666;16.602;2023-01-26T09:20:40;2.78;;;1.40;;
65230;SDS011;51813;40.666;16.602;2023-01-26T09:23:06;2.00;;;1.10;;
65230;SDS011;51813;40.666;16.602;2023-01-26T09:25:34;2.10;;;1.10;;
65230;SDS011;51813;40.666;16.602;2023-01-26T09:28:01;2.35;;;1.30;;
65230;SDS011;51813;40.666;16.602;2023-01-26T09:30:27;2.53;;;1.20;;
65230;SDS011;51813;40.666;16.602;2023-01-26T09:32:57;2.42;;;1.17;;
65230;SDS011;51813;40.666;16.602;2023-01-26T09:35:26;3.55;;;1.30;;
65230;SDS011;51813;40.666;16.602;2023-01-26T09:37:55;4.20;;;1.42;;
65230;SDS011;51813;40.666;16.602;2023-01-26T09:40:24;2.10;;;1.00;;
65230;SDS011;51813;40.666;16.602;2023-01-26T09:48:44;2.72;;;1.52;;
65230;SDS011;51813;40.666;16.602;2023-01-26T09:51:40;2.75;;;1.40;;
65230;SDS011;51813;40.666;16.602;2023-01-26T09:56:59;2.22;;;1.35;;
65230;SDS011;51813;40.666;16.602;2023-01-26T10:07:12;2.80;;;1.60;;
65230;SDS011;51813;40.666;16.602;2023-01-26T10:09:40;2.60;;;1.48;;
65230;SDS011;51813;40.666;16.602;2023-01-26T10:12:20;2.97;;;1.83;;
65230;SDS011;51813;40.666;16.602;2023-01-26T10:15:05;3.58;;;1.90;;
65230;SDS011;51813;40.666;16.602;2023-01-26T10:17:43;3.15;;;1.80;;
65230;SDS011;51813;40.666;16.602;2023-01-26T10:22:53;2.42;;;1.40;;
65230;SDS011;51813;40.666;16.602;2023-01-26T10:25:35;2.60;;;1.60;;
65230;SDS011;51813;40.666;16.602;2023-01-26T10:28:19;2.47;;;1.50;;
65230;SDS011;51813;40.666;16.602;2023-01-26T10:30:51;2.50;;;1.42;;
65230;SDS011;51813;40.666;16.602;2023-01-26T10:35:51;2.80;;;1.40;;
65230;SDS011;51813;40.666;16.602;2023-01-26T10:43:48;2.15;;;1.25;;
65230;SDS011;51813;40.666;16.602;2023-01-26T10:46:25;2.70;;;1.40;;
65230;SDS011;51813;40.666;16.602;2023-01-26T10:48:51;2.50;;;1.40;;
65230;SDS011;51813;40.666;16.602;2023-01-26T10:51:29;2.20;;;1.20;;
65230;SDS011;51813;40.666;16.602;2023-01-26T10:56:59;2.10;;;1.23;;
65230;SDS011;51813;40.666;16.602;2023-01-26T10:59:29;2.30;;;1.20;;
65230;SDS011;51813;40.666;16.602;2023-01-26T11:04:38;3.45;;;1.30;;
65230;SDS011;51813;40.666;16.602;2023-01-26T11:07:24;2.08;;;1.20;;
65230;SDS011;51813;40.666;16.602;2023-01-26T11:09:52;2.35;;;1.50;;
65230;SDS011;51813;40.666;16.602;2023-01-26T11:12:19;3.42;;;1.27;;
65230;SDS011;51813;40.666;16.602;2023-01-26T11:14:59;1.88;;;1.10;;
65230;SDS011;51813;40.666;16.602;2023-01-26T11:17:38;2.60;;;1.30;;
65230;SDS011;51813;40.666;16.602;2023-01-26T11:23:17;2.28;;;1.20;;
65230;SDS011;51813;40.666;16.602;2023-01-26T11:26:00;2.28;;;1.10;;
65230;SDS011;51813;40.666;16.602;2023-01-26T11:37:04;3.65;;;1.38;;
65230;SDS011;51813;40.666;16.602;2023-01-26T11:39:54;2.42;;;1.20;;
65230;SDS011;51813;40.666;16.602;2023-01-26T11:51:22;2.22;;;1.25;;
65230;SDS011;51813;40.666;16.602;2023-01-26T11:59:38;2.20;;;1.23;;
65230;SDS011;51813;40.666;16.602;2023-01-26T12:04:50;2.17;;;1.20;;
65230;SDS011;51813;40.666;16.602;2023-01-26T12:10:19;2.70;;;1.42;;
65230;SDS011;51813;40.666;16.602;2023-01-26T12:12:54;2.17;;;1.38;;
65230;SDS011;51813;40.666;16.602;2023-01-26T12:15:32;2.22;;;1.30;;
65230;SDS011;51813;40.666;16.602;2023-01-26T12:26:01;1.90;;;1.30;;
65230;SDS011;51813;40.666;16.602;2023-01-26T12:28:45;2.40;;;1.37;;
65230;SDS011;51813;40.666;16.602;2023-01-26T12:31:21;2.40;;;1.30;;
65230;SDS011;51813;40.666;16.602;2023-01-26T12:33:48;3.10;;;1.50;;
65230;SDS011;51813;40.666;16.602;2023-01-26T12:39:37;2.65;;;1.40;;
65230;SDS011;51813;40.666;16.602;2023-01-26T12:57:38;2.10;;;1.20;;
65230;SDS011;51813;40.666;16.602;2023-01-26T13:00:19;3.45;;;1.17;;
65230;SDS011;51813;40.666;16.602;2023-01-26T13:02:48;3.08;;;1.50;;
65230;SDS011;51813;40.666;16.602;2023-01-26T13:05:28;3.33;;;1.40;;
65230;SDS011;51813;40.666;16.602;2023-01-26T13:07:56;2.45;;;1.10;;
65230;SDS011;51813;40.666;16.602;2023-01-26T13:10:24;2.58;;;1.35;;
65230;SDS011;51813;40.666;16.602;2023-01-26T13:15:22;2.20;;;1.23;;
65230;SDS011;51813;40.666;16.602;2023-01-26T13:17:55;2.17;;;1.15;;
65230;SDS011;51813;40.666;16.602;2023-01-26T13:22:53;1.85;;;1.10;;
65230;SDS011;51813;40.666;16.602;2023-01-26T13:25:30;2.33;;;1.40;;
65230;SDS011;51813;40.666;16.602;2023-01-26T13:28:00;2.33;;;1.10;;
65230;SDS011;51813;40.666;16.602;2023-01-26T13:30:31;2.70;;;1.63;;
65230;SDS011;51813;40.666;16.602;2023-01-26T13:33:19;2.20;;;1.20;;
65230;SDS011;51813;40.666;16.602;2023-01-26T13:35:47;2.20;;;1.25;;
65230;SDS011;51813;40.666;16.602;2023-01-26T13:40:51;2.42;;;1.38;;
65230;SDS011;51813;40.666;16.602;2023-01-26T13:46:06;3.72;;;1.70;;
65230;SDS011;51813;40.666;16.602;2023-01-26T13:48:43;2.75;;;1.80;;
65230;SDS011;51813;40.666;16.602;2023-01-26T13:51:18;3.00;;;1.40;;
65230;SDS011;51813;40.666;16.602;2023-01-26T13:58:51;2.92;;;1.60;;
65230;SDS011;51813;40.666;16.602;2023-01-26T14:01:17;2.60;;;1.52;;
65230;SDS011;51813;40.666;16.602;2023-01-26T14:03:44;2.75;;;1.27;;
65230;SDS011;51813;40.666;16.602;2023-01-26T14:06:19;2.83;;;1.42;;
65230;SDS011;51813;40.666;16.602;2023-01-26T14:08:50;3.05;;;1.20;;
65230;SDS011;51813;40.666;16.602;2023-01-26T14:11:19;2.53;;;1.30;;
65230;SDS011;51813;40.666;16.602;2023-01-26T14:13:53;2.10;;;1.13;;
65230;SDS011;51813;40.666;16.602;2023-01-26T14:16:23;2.00;;;1.25;;
65230;SDS011;51813;40.666;16.602;2023-01-26T14:19:01;2.15;;;1.33;;
65230;SDS011;51813;40.666;16.602;2023-01-26T14:21:57;2.20;;;1.27;;
65230;SDS011;51813;40.666;16.602;2023-01-26T14:24:36;2.50;;;1.40;;
65230;SDS011;51813;40.666;16.602;2023-01-26T14:29:51;2.20;;;1.20;;
65230;SDS011;51813;40.666;16.602;2023-01-26T14:32:16;2.97;;;1.15;;
65230;SDS011;51813;40.666;16.602;2023-01-26T14:34:52;2.92;;;1.23;;
65230;SDS011;51813;40.666;16.602;2023-01-26T14:37:23;1.70;;;1.00;;
65230;SDS011;51813;40.666;16.602;2023-01-26T14:40:08;2.20;;;1.20;;
65230;SDS011;51813;40.666;16.602;2023-01-26T14:42:47;2.00;;;1.10;;
65230;SDS011;51813;40.666;16.602;2023-01-26T14:45:15;2.40;;;1.35;;
65230;SDS011;51813;40.666;16.602;2023-01-26T14:47:42;3.25;;;1.40;;
65230;SDS011;51813;40.666;16.602;2023-01-26T14:52:48;3.50;;;1.25;;
65230;SDS011;51813;40.666;16.602;2023-01-26T14:55:34;2.10;;;1.10;;
65230;SDS011;51813;40.666;16.602;2023-01-26T14:58:00;2.08;;;1.30;;
65230;SDS011;51813;40.666;16.602;2023-01-26T15:00:30;2.72;;;1.50;;
65230;SDS011;51813;40.666;16.602;2023-01-26T15:03:22;3.40;;;2.50;;
65230;SDS011;51813;40.666;16.602;2023-01-26T15:06:18;3.33;;;1.42;;
65230;SDS011;51813;40.666;16.602;2023-01-26T15:08:55;2.88;;;1.20;;
65230;SDS011;51813;40.666;16.602;2023-01-26T15:14:29;2.33;;;1.38;;
65230;SDS011;51813;40.666;16.602;2023-01-26T15:16:55;2.70;;;1.20;;
65230;SDS011;51813;40.666;16.602;2023-01-26T15:19:22;2.25;;;1.35;;
65230;SDS011;51813;40.666;16.602;2023-01-26T15:21:48;2.60;;;1.50;;
65230;SDS011;51813;40.666;16.602;2023-01-26T15:24:14;3.03;;;1.45;;
65230;SDS011;51813;40.666;16.602;2023-01-26T15:26:40;2.58;;;1.20;;
65230;SDS011;51813;40.666;16.602;2023-01-26T15:29:27;2.33;;;1.13;;
65230;SDS011;51813;40.666;16.602;2023-01-26T15:31:56;2.70;;;1.17;;
65230;SDS011;51813;40.666;16.602;2023-01-26T15:36:54;2.25;;;1.10;;
65230;SDS011;51813;40.666;16.602;2023-01-26T15:39:22;1.83;;;1.10;;
65230;SDS011;51813;40.666;16.602;2023-01-26T15:44:29;3.03;;;1.20;;
65230;SDS011;51813;40.666;16.602;2023-01-26T15:46:54;2.00;;;1.00;;
65230;SDS011;51813;40.666;16.602;2023-01-26T15:49:21;2.25;;;1.15;;
65230;SDS011;51813;40.666;16.602;2023-01-26T15:51:47;2.28;;;1.15;;
65230;SDS011;51813;40.666;16.602;2023-01-26T15:54:13;2.38;;;1.30;;
65230;SDS011;51813;40.666;16.602;2023-01-26T15:56:39;2.58;;;1.27;;
65230;SDS011;51813;40.666;16.602;2023-01-26T15:59:04;2.00;;;1.00;;
65230;SDS011;51813;40.666;16.602;2023-01-26T16:01:30;2.38;;;0.98;;
65230;SDS011;51813;40.666;16.602;2023-01-26T16:03:56;1.83;;;1.02;;
65230;SDS011;51813;40.666;16.602;2023-01-26T16:06:26;1.77;;;1.00;;
65230;SDS011;51813;40.666;16.602;2023-01-26T16:08:54;1.98;;;1.10;;
65230;SDS011;51813;40.666;16.602;2023-01-26T16:11:20;1.92;;;1.10;;
65230;SDS011;51813;40.666;16.602;2023-01-26T16:13:50;2.10;;;1.00;;
65230;SDS011;51813;40.666;16.602;2023-01-26T16:16:16;2.28;;;1.30;;
65230;SDS011;51813;40.666;16.602;2023-01-26T16:18:42;2.78;;;1.17;;
65230;SDS011;51813;40.666;16.602;2023-01-26T16:21:16;2.08;;;1.25;;
65230;SDS011;51813;40.666;16.602;2023-01-26T16:23:43;2.30;;;1.10;;
65230;SDS011;51813;40.666;16.602;2023-01-26T16:26:10;2.65;;;1.10;;
65230;SDS011;51813;40.666;16.602;2023-01-26T16:28:37;2.05;;;1.10;;
65230;SDS011;51813;40.666;16.602;2023-01-26T16:31:04;1.80;;;1.08;;
65230;SDS011;51813;40.666;16.602;2023-01-26T16:33:50;1.70;;;1.10;;
65230;SDS011;51813;40.666;16.602;2023-01-26T16:36:17;2.70;;;1.40;;
65230;SDS011;51813;40.666;16.602;2023-01-26T16:38:44;2.20;;;1.27;;
65230;SDS011;51813;40.666;16.602;2023-01-26T16:43:41;2.00;;;1.15;;
65230;SDS011;51813;40.666;16.602;2023-01-26T16:46:07;3.03;;;1.30;;
65230;SDS011;51813;40.666;16.602;2023-01-26T16:48:33;2.95;;;1.40;;
65230;SDS011;51813;40.666;16.602;2023-01-26T16:51:00;2.80;;;1.50;;
65230;SDS011;51813;40.666;16.602;2023-01-26T16:53:35;2.30;;;1.50;;
65230;SDS011;51813;40.666;16.602;2023-01-26T16:56:01;2.45;;;1.30;;
65230;SDS011;51813;40.666;16.602;2023-01-26T16:58:27;2.58;;;1.40;;
65230;SDS011;51813;40.666;16.602;2023-01-26T17:00:54;3.65;;;1.75;;
65230;SDS011;51813;40.666;16.602;2023-01-26T17:03:20;2.65;;;1.38;;
65230;SDS011;51813;40.666;16.602;2023-01-26T17:05:46;2.90;;;1.40;;